Have a Safe July 4th! 

Flight Track Log - Related Links

Times and Time Zones

All times are in EST time to prevent confusion due to time zone crossing. See the N1776A flight status page for this flight to view local times or setup timezone preferences in your user account.

Time Position Orientation Groundspeed Altitude Reporting Facility
EST Latitude Longitude Course Direction KTS MPH feet Rate Location/Type
Mon 09:20:07 PM 27.9833 -82.5333 358° North 168 193 800  Level Tampa TRACON
Mon 09:22:02 PM 28.1078 -82.5372 355° North 248 285 5,300 2,606 Climbing Jacksonville Center
Mon 09:23:02 PM 28.1767 -82.5442 355° North 253 291 8,400 2,850 Climbing Jacksonville Center
Mon 09:24:02 PM 28.2497 -82.5508 354° North 259 298 11,000 2,600 Climbing Jacksonville Center
Mon 09:25:02 PM 28.3311 -82.5600 355° North 272 313 13,600 2,600 Climbing Jacksonville Center
Mon 09:26:02 PM 28.4186 -82.5692 356° North 295 339 16,200 2,400 Climbing Jacksonville Center
Mon 09:27:02 PM 28.5042 -82.5761 356° North 301 346 18,400 2,400 Climbing Jacksonville Center
Mon 09:28:02 PM 28.5900 -82.5828 355° North 301 346 21,000 2,650 Climbing Jacksonville Center
Mon 09:29:02 PM 28.6756 -82.5919 356° North 307 353 23,700 2,600 Climbing Jacksonville Center
Mon 09:30:02 PM 28.7589 -82.5989 352° North 307 353 26,200 2,150 Climbing Jacksonville Center
Mon 09:31:02 PM 28.8467 -82.6128 354° North 307 353 28,000 1,800 Climbing Jacksonville Center
Mon 09:32:02 PM 28.9386 -82.6244 353° North 319 367 29,800 1,750 Climbing Jacksonville Center
Mon 09:33:02 PM 29.0325 -82.6383 354° North 324 373 31,500 1,450 Climbing Jacksonville Center
Mon 09:34:02 PM 29.1264 -82.6500 353° North 336 387 32,700 1,200 Climbing Jacksonville Center
Mon 09:35:02 PM 29.2225 -82.6642 353° North 341 392 33,900 650 Climbing Jacksonville Center
Mon 09:36:02 PM 29.3269 -82.6781 355° North 353 406 34,000 50 Climbing Jacksonville Center
Mon 09:37:02 PM 29.4375 -82.6900 358° North 372 428 34,000  Level Jacksonville Center
Mon 09:38:02 PM 29.5567 -82.6944 360° North 403 464 34,000 300 Level Jacksonville Center
Mon 09:39:02 PM 29.6714 -82.6942 360° North 408 470 34,600 800 Climbing Jacksonville Center
Mon 09:40:02 PM 29.7819 -82.6939 360° North 408 470 35,600 900 Climbing Jacksonville Center
Mon 09:41:02 PM 29.8969 -82.6936 North 403 464 36,400 700 Climbing Jacksonville Center
Mon 09:42:02 PM 30.0053 -82.6911 North 403 464 37,000 300 Climbing Jacksonville Center
Mon 09:43:02 PM 30.1222 -82.6883 360° North 403 464 37,000  Level Jacksonville Center
Mon 09:44:02 PM 30.2350 -82.6881 North 403 464 37,000  Level Jacksonville Center
Mon 09:45:02 PM 30.3500 -82.6856 360° North 403 464 37,000  Level Jacksonville Center
Mon 09:46:02 PM 30.4625 -82.6853 12° North 403 464 37,000  Level Jacksonville Center
Mon 09:47:02 PM 30.5775 -82.6561 23° Northeast 403 464 37,000  Level Jacksonville Center
Mon 09:48:02 PM 30.6900 -82.6003 23° Northeast 414 476 37,000  Level Jacksonville Center
Mon 09:49:02 PM 30.7983 -82.5467 24° Northeast 425 489 37,000  Level Jacksonville Center
Mon 09:50:02 PM 30.9131 -82.4883 23° Northeast 430 495 37,000  Level Jacksonville Center
Mon 09:51:02 PM 31.0258 -82.4319 22° Northeast 435 501 37,000  Level Jacksonville Center
Mon 09:52:02 PM 31.1361 -82.3806 22° Northeast 430 495 37,000  Level Jacksonville Center
Mon 09:53:02 PM 31.2508 -82.3264 22° Northeast 430 495 37,000  Level Jacksonville Center
Mon 09:54:03 PM 31.3633 -82.2722 23° Northeast 430 495 37,000  Level Jacksonville Center
Mon 09:55:02 PM 31.4758 -82.2153 24° Northeast 435 501 37,000  Level Jacksonville Center
Mon 09:56:02 PM 31.5903 -82.1561 22° Northeast 435 501 37,000  Level Jacksonville Center
Mon 09:57:03 PM 31.7131 -82.0989 23° Northeast 435 501 37,000  Level Jacksonville Center
Mon 09:58:02 PM 31.8150 -82.0492 23° Northeast 440 506 37,000  Level Jacksonville Center
Mon 09:59:02 PM 31.9400 -81.9867 22° Northeast 434 499 37,000  Level Jacksonville Center
Mon 10:00:02 PM 32.0522 -81.9342 22° Northeast 434 499 37,000  Level Jacksonville Center
Mon 10:01:02 PM 32.1583 -81.8839 22° Northeast 439 505 37,000  Level Jacksonville Center
Mon 10:02:02 PM 32.2853 -81.8236 21° North 439 505 37,000  Level Jacksonville Center
Mon 10:03:02 PM 32.3994 -81.7706 23° Northeast 439 505 37,000  Level Jacksonville Center
Mon 10:04:02 PM 32.5014 -81.7200 22° Northeast 439 505 37,000  Level Jacksonville Center
Mon 10:05:02 PM 32.6303 -81.6592 23° Northeast 439 505 37,000  Level Jacksonville Center
Mon 10:06:02 PM 32.7300 -81.6083 22° Northeast 439 505 37,000  Level Jacksonville Center
Mon 10:07:03 PM 32.8483 -81.5522 22° Northeast 439 505 37,000  Level Jacksonville Center
Mon 10:08:02 PM 32.9625 -81.4961 22° Northeast 439 505 37,000  Level Jacksonville Center
Mon 10:09:02 PM 33.0767 -81.4422 22° Northeast 439 505 37,000  Level Jacksonville Center
Mon 10:10:02 PM 33.1931 -81.3858 23° Northeast 439 505 37,000  Level Jacksonville Center
Mon 10:11:02 PM 33.3069 -81.3292 22° Northeast 439 505 37,000  Level Jacksonville Center
Mon 10:12:02 PM 33.4233 -81.2725 23° Northeast 439 505 37,000  Level Jacksonville Center
Mon 10:13:02 PM 33.5372 -81.2156 22° Northeast 439 505 37,000  Level Jacksonville Center
Mon 10:14:02 PM 33.6556 -81.1583 24° Northeast 444 511 37,000  Level Jacksonville Center
Mon 10:15:02 PM 33.7819 -81.0908 17° North 449 517 37,000  Level Jacksonville Center
Mon 10:16:02 PM 33.8981 -81.0486 North 444 511 37,000  Level Jacksonville Center
Mon 10:17:02 PM 34.0189 -81.0361 North 434 499 37,000  Level Jacksonville Center
Mon 10:19:20 PM 34.2808 -81.0119 North 422 486 37,000  Level Atlanta Center
Mon 10:20:20 PM 34.4119 -81.0022 North 427 491 37,000  Level Atlanta Center
Mon 10:21:20 PM 34.5306 -80.9853 North 427 491 37,000  Level Atlanta Center
Mon 10:22:20 PM 34.6514 -80.9733 North 422 486 37,000  Level Atlanta Center
Mon 10:23:20 PM 34.7700 -80.9639 North 430 495 37,000  Level Atlanta Center
Mon 10:24:20 PM 34.8886 -80.9519 North 425 489 37,000  Level Atlanta Center
Mon 10:25:20 PM 35.0114 -80.9322 North 425 489 37,000  Level Atlanta Center
Mon 10:26:20 PM 35.1281 -80.9253 North 425 489 37,000  Level Atlanta Center
Mon 10:27:20 PM 35.2486 -80.9131 North 430 495 37,000  Level Atlanta Center
Mon 10:28:20 PM 35.3692 -80.8958 North 436 502 37,000  Level Atlanta Center
Mon 10:29:20 PM 35.4753 -80.8842 North 436 502 37,000  Level Atlanta Center
Mon 10:30:20 PM 35.5981 -80.8742 North 436 502 37,000  Level Atlanta Center
Mon 10:31:20 PM 35.7208 -80.8594 North 441 507 37,000  Level Atlanta Center
Mon 10:32:20 PM 35.8436 -80.8494 North 441 507 37,000  Level Atlanta Center
Mon 10:33:20 PM 35.9664 -80.8344 North 441 507 37,000  Level Atlanta Center
Mon 10:34:20 PM 36.0850 -80.8219 North 436 502 37,000  Level Atlanta Center
Mon 10:35:20 PM 36.2036 -80.8094 North 431 496 37,000 -600 Level Atlanta Center
Mon 10:36:20 PM 36.3219 -80.7969 North 421 484 35,800 -1,000 Descending Atlanta Center
Mon 10:37:20 PM 36.4406 -80.7844 North 421 484 35,000 -950 Descending Atlanta Center
Mon 10:38:20 PM 36.5592 -80.7719 North 421 484 33,900 -1,000 Descending Atlanta Center
Mon 10:39:20 PM 36.6900 -80.7561 North 421 484 33,000 -900 Descending Atlanta Center
Mon 10:40:20 PM 36.7900 -80.7469 North 421 484 32,100 -615 Descending Atlanta Center
Mon 10:42:35 PM 37.0622 -80.7194 13° North 406 467 31,000 -338 Descending Washington Center
Mon 10:43:35 PM 37.1722 -80.6878 14° North 427 491 31,000  Level Washington Center
Mon 10:44:35 PM 37.2969 -80.6492 15° North 439 505 31,000  Level Washington Center
Mon 10:45:35 PM 37.4217 -80.6078 15° North 449 517 31,000  Level Washington Center
Mon 10:46:35 PM 37.5444 -80.5661 13° North 455 524 31,000  Level Washington Center
Mon 10:47:35 PM 37.6669 -80.5294 15° North 455 524 31,000  Level Washington Center
Mon 10:48:35 PM 37.8003 -80.4856 15° North 455 524 31,000 -750 Level Washington Center
Mon 10:49:35 PM 37.9208 -80.4433 14° North 455 524 29,500 -1,500 Descending Washington Center
Mon 10:50:35 PM 38.0392 -80.4061 16° North 443 510 28,000 -1,550 Descending Washington Center
Mon 10:51:35 PM 38.1575 -80.3636 15° North 438 504 26,400 -1,550 Descending Washington Center
Mon 10:52:35 PM 38.2739 -80.3236 14° North 443 510 24,900 -1,200 Descending Washington Center
Mon 10:53:35 PM 38.3817 -80.2881 15° North 443 510 24,000 -450 Descending Washington Center
Mon 10:54:35 PM 38.4981 -80.2475 14° North 438 504 24,000  Level Washington Center
Mon 10:55:35 PM 38.6161 -80.2100 16° North 438 504 24,000 -620 Level Washington Center
Mon 10:57:39 PM 38.8572 -80.1194 21° North 434 499 22,100 -978 Descending Cleveland Center
Mon 10:58:39 PM 38.9656 -80.0653 27° Northeast 423 487 21,000 -550 Descending Cleveland Center
Mon 10:59:39 PM 39.0714 -79.9950 28° Northeast 418 481 21,000  Level Cleveland Center
Mon 11:00:39 PM 39.1772 -79.9217 22° Northeast 418 481 21,000  Level Cleveland Center
Mon 11:01:39 PM 39.2853 -79.8644 North 423 487 21,000  Level Cleveland Center
Mon 11:02:39 PM 39.3894 -79.8581 North 393 452 21,000 -900 Level Cleveland Center
Mon 11:03:39 PM 39.4875 -79.8514 North 372 428 19,200 -1,750 Descending Cleveland Center
Mon 11:04:39 PM 39.5894 -79.8422 North 366 421 17,500 -2,000 Descending Cleveland Center
Mon 11:05:39 PM 39.6894 -79.8358 North 361 415 15,200 -2,400 Descending Cleveland Center
Mon 11:06:39 PM 39.7894 -79.8294 North 361 415 12,700 -2,350 Descending Cleveland Center
Mon 11:07:39 PM 39.8811 -79.8203 North 351 404 10,500 -1,700 Descending Cleveland Center
Mon 11:08:39 PM 39.9583 -79.8139 North 311 358 9,300 -1,400 Descending Cleveland Center
Mon 11:09:39 PM 40.0269 -79.8078 North 271 312 7,700 -1,700 Descending Cleveland Center
Mon 11:10:39 PM 40.0936 -79.8069 355° North 244 281 5,900 -1,350 Descending Cleveland Center
Mon 11:11:39 PM 40.1583 -79.8144 357° North 231 266 5,000 -1,250 Descending Cleveland Center
Mon 11:12:39 PM 40.2189 -79.8192 355° North 231 266 3,400 -1,000 Descending Cleveland Center
Mon 11:13:39 PM 40.2794 -79.8267 343° North 219 252 3,000 -600 Descending Cleveland Center
Mon 11:14:39 PM 40.3317 -79.8478 307° West 195 224 2,200 -600 Descending Cleveland Center
Mon 11:15:39 PM 40.3547 -79.8883 271° West 144 166 1,800 -450 Descending Cleveland Center
Mon 11:16:39 PM 40.3550 -79.9211 271° West 128 147 1,300 -500 Descending Cleveland Center

Login

Don't have an account? Register now (free) for customized features, flight alerts, and more!